Time;durP1;ratioP1;P1;durP2;ratioP2;P2;SDS_P1;SDS_P2;PMS_P1;PMS_P2;Temp;Humidity;BMP_temperature;BMP_pressure;BME280_temperature;BME280_humidity;BME280_pressure;Samples;Min_cycle;Max_cycle;Signal;HPM_P1;HPM_P2
2022/06/02 00:02:22;;;;;;;12.18;8.20;;;538.40;2406.40;;;;;;5030309;28;20030;-55
2022/06/02 00:05:16;;;;;;;10.75;7.43;;;538.40;2406.40;;;;;;5030229;28;20029;-56
2022/06/02 00:08:12;;;;;;;14.05;8.00;;;538.30;2406.40;;;;;;5008184;28;20074;-56
2022/06/02 00:10:59;;;;;;;12.50;7.70;;;538.20;2406.40;;;;;;5008359;28;20084;-55
2022/06/02 00:13:58;;;;;;;12.63;7.18;;;538.10;2406.40;;;;;;5008344;28;20044;-56
2022/06/02 00:16:43;;;;;;;12.70;7.97;;;538.10;2406.40;;;;;;5008340;28;20037;-56
2022/06/02 00:19:21;;;;;;;11.90;8.57;;;538.10;2406.40;;;;;;5007879;28;20129;-55
2022/06/02 00:21:55;;;;;;;15.48;8.73;;;538.10;2406.40;;;;;;5008318;28;20026;-56
2022/06/02 00:24:39;;;;;;;12.35;7.78;;;538.00;2406.40;;;;;;5007994;28;20052;-55
2022/06/02 00:27:39;;;;;;;10.23;7.80;;;537.80;2406.40;;;;;;5008384;28;20034;-56
2022/06/02 00:30:08;;;;;;;9.98;7.95;;;537.80;2406.40;;;;;;4963265;28;20034;-55
2022/06/02 00:33:01;;;;;;;11.35;7.95;;;537.80;2406.40;;;;;;4988672;28;20049;-53
2022/06/02 00:36:05;;;;;;;14.93;9.20;;;537.90;2406.40;;;;;;4988629;28;20030;-55
2022/06/02 00:38:38;;;;;;;12.20;8.45;;;537.90;2406.40;;;;;;4988012;28;20065;-56
2022/06/02 00:41:25;;;;;;;15.15;8.55;;;538.00;2406.40;;;;;;4988666;28;20500;-55
2022/06/02 00:44:14;;;;;;;15.25;8.38;;;537.90;2406.40;;;;;;4991200;28;20095;-56
2022/06/02 00:46:58;;;;;;;10.63;8.15;;;537.90;2406.40;;;;;;5009978;28;20025;-56
2022/06/02 00:49:35;;;;;;;12.18;9.20;;;537.90;2406.40;;;;;;5010293;28;20079;-55
2022/06/02 00:52:13;;;;;;;10.80;7.72;;;537.90;2406.40;;;;;;5010065;28;20472;-56
2022/06/02 00:58:09;;;;;;;12.93;7.97;;;537.80;2406.40;;;;;;5010069;28;20519;-55
2022/06/02 01:00:49;;;;;;;10.95;7.28;;;537.80;2406.40;;;;;;5013767;28;20092;-55
2022/06/02 01:03:24;;;;;;;13.23;8.52;;;537.80;2406.40;;;;;;5014040;28;20104;-55
2022/06/02 01:06:13;;;;;;;12.50;9.35;;;537.70;2406.40;;;;;;5013825;28;20018;-56
2022/06/02 01:09:18;;;;;;;14.30;8.73;;;537.60;2406.40;;;;;;5013564;28;20139;-57
2022/06/02 01:12:04;;;;;;;15.38;8.05;;;537.60;2406.40;;;;;;5013817;28;20381;-56
2022/06/02 01:14:54;;;;;;;8.80;7.28;;;537.60;2406.40;;;;;;5013734;28;20025;-56
2022/06/02 01:17:19;;;;;;;11.52;8.85;;;512.90;2380.80;;;;;;5013499;28;20037;-56
2022/06/02 01:19:57;;;;;;;8.75;7.53;;;512.90;2380.80;;;;;;5013779;28;20030;-56
2022/06/02 01:22:35;;;;;;;12.40;9.05;;;512.90;2380.80;;;;;;5013592;28;20483;-55
2022/06/02 01:25:18;;;;;;;11.38;8.80;;;512.90;2380.80;;;;;;5013423;28;20037;-56
2022/06/02 01:28:09;;;;;;;14.70;9.18;;;512.80;2380.80;;;;;;5013575;28;20116;-56
2022/06/02 01:31:06;;;;;;;12.13;7.22;;;512.80;2380.80;;;;;;5013459;28;20049;-55
2022/06/02 01:34:22;;;;;;;11.85;8.10;;;512.80;2380.80;;;;;;5013330;28;20487;-56
2022/06/02 01:36:59;;;;;;;11.82;7.97;;;512.70;2380.80;;;;;;5010757;28;20034;-59
2022/06/02 01:39:59;;;;;;;11.82;9.00;;;512.60;2380.80;;;;;;5011313;28;20084;-54
2022/06/02 01:42:30;;;;;;;11.25;7.25;;;512.60;2380.80;;;;;;4998612;28;20084;-56
2022/06/02 01:45:38;;;;;;;13.32;7.95;;;512.50;2380.80;;;;;;5010989;28;20109;-56
2022/06/02 01:48:09;;;;;;;10.75;8.52;;;512.40;2380.80;;;;;;4972088;28;20198;-55
2022/06/02 01:50:56;;;;;;;14.07;10.35;;;512.40;2380.80;;;;;;4972152;28;20363;-56
2022/06/02 01:53:59;;;;;;;10.07;7.82;;;512.40;2380.80;;;;;;4971716;28;20045;-56
2022/06/02 01:56:54;;;;;;;11.05;8.38;;;512.40;2380.80;;;;;;4971909;28;20377;-56
2022/06/02 01:59:19;;;;;;;12.07;7.53;;;512.30;2380.80;;;;;;4971613;28;20441;-56
2022/06/02 02:01:50;;;;;;;15.25;8.43;;;512.20;2380.80;;;;;;4971907;28;20034;-55
2022/06/02 02:04:25;;;;;;;14.23;8.23;;;512.20;2380.80;;;;;;4971678;28;20535;-55
2022/06/02 02:07:23;;;;;;;9.27;7.32;;;512.20;2380.80;;;;;;4971315;28;20086;-56
2022/06/02 02:10:06;;;;;;;10.65;8.77;;;512.10;2380.80;;;;;;4932581;29;20142;-55
2022/06/02 02:13:10;;;;;;;17.42;9.13;;;512.10;2380.80;;;;;;4920227;29;20558;-56
2022/06/02 02:15:36;;;;;;;;;;;512.10;2380.80;;;;;;4895755;29;20049;-56
2022/06/02 02:18:30;;;;;;;10.52;8.10;;;512.10;2380.80;;;;;;4895194;29;19916;-56
2022/06/02 02:21:10;;;;;;;9.88;7.95;;;512.00;2380.80;;;;;;4881563;29;20048;-56
2022/06/02 02:23:48;;;;;;;13.50;8.20;;;512.10;2380.80;;;;;;4899225;29;20040;-56
2022/06/02 02:26:37;;;;;;;11.00;8.65;;;512.10;2380.80;;;;;;4913997;29;20048;-55
2022/06/02 02:29:30;;;;;;;15.38;8.98;;;512.20;2380.80;;;;;;4914030;29;20124;-54
2022/06/02 02:32:13;;;;;;;13.23;8.15;;;512.10;2380.80;;;;;;4913939;29;20094;-55
2022/06/02 02:35:18;;;;;;;10.32;9.18;;;512.10;2380.80;;;;;;4913566;29;20119;-56
2022/06/02 02:37:52;;;;;;;15.00;8.32;;;512.10;2380.80;;;;;;4913384;29;20550;-57
2022/06/02 02:40:38;;;;;;;14.32;8.30;;;512.10;2380.80;;;;;;4913446;29;20503;-57
2022/06/02 02:43:35;;;;;;;11.20;7.88;;;512.20;2380.80;;;;;;4913715;29;20030;-55
2022/06/02 02:46:19;;;;;;;9.80;7.00;;;512.20;2380.80;;;;;;4926124;29;20359;-57
2022/06/02 02:48:50;;;;;;;9.60;7.72;;;512.10;2380.80;;;;;;4951676;29;20023;-56
2022/06/02 02:51:29;;;;;;;11.70;7.97;;;512.20;2380.80;;;;;;4951542;28;20146;-55
2022/06/02 02:54:05;;;;;;;10.85;8.23;;;512.10;2380.80;;;;;;5011904;28;20108;-56
2022/06/02 02:56:37;;;;;;;12.45;8.43;;;512.10;2380.80;;;;;;5011765;28;20030;-56
2022/06/02 02:59:26;;;;;;;12.43;8.73;;;512.10;2380.80;;;;;;5011739;28;20395;-56
2022/06/02 03:01:54;;;;;;;11.50;8.07;;;512.00;2380.80;;;;;;5009398;28;20500;-55
2022/06/02 03:04:41;;;;;;;9.90;8.32;;;512.00;2380.80;;;;;;5009506;28;20041;-56
2022/06/02 03:07:07;;;;;;;13.60;9.50;;;512.00;2380.80;;;;;;5009351;28;20042;-56
2022/06/02 03:09:40;;;;;;;11.95;7.93;;;487.30;2380.80;;;;;;5009762;28;20388;-56
2022/06/02 03:12:29;;;;;;;;;;;512.00;2380.80;;;;;;5009919;28;20033;-55
2022/06/02 03:15:24;;;;;;;9.82;7.40;;;512.00;2380.80;;;;;;5008803;28;19931;-54
2022/06/02 03:18:05;;;;;;;11.27;7.47;;;487.30;2380.80;;;;;;5008939;28;20044;-56
2022/06/02 03:20:47;;;;;;;9.70;7.50;;;487.30;2380.80;;;;;;5009138;28;20030;-56
2022/06/02 03:23:22;;;;;;;14.65;8.88;;;487.30;2380.80;;;;;;5008522;28;20109;-55
2022/06/02 03:25:53;;;;;;;10.65;7.70;;;487.30;2380.80;;;;;;5008937;28;20030;-56
2022/06/02 03:28:33;;;;;;;10.70;7.65;;;487.30;2380.80;;;;;;5008910;28;20081;-56
2022/06/02 03:31:12;;;;;;;12.23;8.05;;;487.30;2380.80;;;;;;5009022;28;20026;-56
2022/06/02 03:34:06;;;;;;;13.82;8.73;;;512.00;2380.80;;;;;;5008809;28;20118;-56
2022/06/02 03:36:49;;;;;;;12.13;7.35;;;512.10;2380.80;;;;;;5008723;28;20054;-55
2022/06/02 03:39:46;;;;;;;9.38;7.25;;;512.30;2380.80;;;;;;5010527;28;20049;-56
2022/06/02 03:42:30;;;;;;;13.40;7.72;;;512.40;2380.80;;;;;;5010899;28;20061;-56
2022/06/02 03:45:07;;;;;;;12.23;8.73;;;512.60;2380.80;;;;;;5011027;28;20346;-55
2022/06/02 03:48:01;;;;;;;11.90;7.95;;;512.80;2380.80;;;;;;5011228;28;20076;-55
2022/06/02 03:50:26;;;;;;;12.27;9.23;;;537.60;2406.40;;;;;;5011038;28;20026;-55
2022/06/02 03:53:33;;;;;;;10.40;7.55;;;537.70;2406.40;;;;;;5010758;28;20473;-56
2022/06/02 03:56:17;;;;;;;11.38;8.07;;;537.80;2406.40;;;;;;5009404;28;20494;-55
2022/06/02 03:58:43;;;;;;;8.90;8.00;;;537.80;2406.40;;;;;;5010912;28;20049;-55
2022/06/02 04:01:17;;;;;;;13.50;7.45;;;537.80;2406.40;;;;;;5010771;28;20018;-57
2022/06/02 04:04:01;;;;;;;10.88;8.25;;;537.90;2406.40;;;;;;5010802;28;20384;-55
2022/06/02 04:06:44;;;;;;;11.93;7.15;;;537.90;2406.40;;;;;;5010997;28;20480;-55
2022/06/02 04:09:40;;;;;;;12.80;8.48;;;537.80;2406.40;;;;;;5010444;28;20025;-55
2022/06/02 04:14:56;;;;;;;10.38;6.60;;;538.00;2406.40;;;;;;5010613;28;20092;-55
2022/06/02 04:17:37;;;;;;;11.00;7.93;;;538.10;2406.40;;;;;;5010372;28;20029;-56
2022/06/02 04:20:36;;;;;;;11.52;7.72;;;538.00;2406.40;;;;;;5010582;28;20527;-56
2022/06/02 04:23:39;;;;;;;11.07;7.70;;;538.10;2406.40;;;;;;5010438;28;20029;-57
2022/06/02 04:26:26;;;;;;;9.25;7.60;;;538.00;2406.40;;;;;;5010469;28;20454;-55
2022/06/02 04:29:24;;;;;;;10.00;7.90;;;538.20;2406.40;;;;;;5010204;28;20026;-57
2022/06/02 04:32:39;;;;;;;13.07;8.73;;;538.40;2406.40;;;;;;5010366;28;20084;-56
2022/06/02 04:35:28;;;;;;;8.60;7.25;;;589.20;2432.00;;;;;;5010385;28;20042;-56
2022/06/02 04:38:03;;;;;;;8.50;6.35;;;691.60;2432.00;;;;;;5010103;28;20053;-56
2022/06/02 04:40:50;;;;;;;8.38;6.43;;;742.90;2150.40;;;;;;5010171;28;20014;-57
2022/06/02 04:43:31;;;;;;;6.72;5.85;;;793.60;1920.00;;;;;;5010280;28;20037;-57
2022/06/02 04:46:05;;;;;;;8.38;5.53;;;844.80;1715.20;;;;;;5010168;28;20022;-57
2022/06/02 04:48:43;;;;;;;6.75;5.80;;;845.20;1664.00;;;;;;5010295;28;20026;-58
2022/06/02 04:51:35;;;;;;;7.13;5.60;;;870.60;1587.20;;;;;;5009999;28;20022;-57
2022/06/02 04:54:42;;;;;;;7.00;6.40;;;896.00;1536.00;;;;;;5010015;28;20061;-58
2022/06/02 04:57:46;;;;;;;9.07;6.00;;;921.70;1459.20;;;;;;5009942;28;20076;-57
2022/06/02 05:00:23;;;;;;;6.00;5.40;;;922.40;1408.00;;;;;;5009842;28;20392;-57
2022/06/02 05:03:07;;;;;;;7.93;5.93;;;973.20;1331.20;;;;;;5009823;28;20113;-58
2022/06/02 05:05:51;;;;;;;6.80;5.88;;;948.10;1331.20;;;;;;5010197;28;20558;-57
2022/06/02 05:09:26;;;;;;;7.38;6.25;;;973.70;1280.00;;;;;;5010043;28;20068;-59
2022/06/02 05:12:17;;;;;;;7.10;6.10;;;973.70;1280.00;;;;;;4988057;28;20030;-58
2022/06/02 05:15:06;;;;;;;7.78;7.00;;;999.20;1280.00;;;;;;4987671;28;20030;-58
2022/06/02 05:17:56;;;;;;;8.40;7.40;;;999.00;1254.40;;;;;;4988087;28;20042;-57
2022/06/02 05:20:43;;;;;;;9.32;7.10;;;1024.30;1203.20;;;;;;4987742;28;20043;-59
2022/06/02 05:23:17;;;;;;;7.78;7.05;;;1024.70;1203.20;;;;;;4987981;28;20026;-58
2022/06/02 05:25:43;;;;;;;8.07;6.72;;;1049.80;1203.20;;;;;;4988110;28;20034;-58
2022/06/02 05:28:09;;;;;;;7.97;7.28;;;1050.10;1177.60;;;;;;4987968;28;20161;-57
2022/06/02 05:31:13;;;;;;;7.93;7.22;;;1049.90;1177.60;;;;;;4988158;28;20536;-58
2022/06/02 05:33:44;;;;;;;8.00;7.18;;;1075.50;1152.00;;;;;;4949067;29;20465;-58
2022/06/02 05:36:18;;;;;;;9.35;7.38;;;1100.80;1126.40;;;;;;4945718;29;20027;-58
2022/06/02 05:38:59;;;;;;;7.75;7.00;;;1101.60;1100.80;;;;;;4941074;29;20149;-57
2022/06/02 05:41:46;;;;;;;9.88;6.65;;;1126.50;1100.80;;;;;;4935721;29;20114;-59
2022/06/02 05:44:48;;;;;;;7.90;7.20;;;1126.60;1100.80;;;;;;4937377;29;20115;-59
2022/06/02 05:47:44;;;;;;;9.43;7.93;;;1152.50;1024.00;;;;;;4992566;28;20034;-60
2022/06/02 05:50:30;;;;;;;9.98;8.40;;;1177.60;1024.00;;;;;;5007908;28;20263;-59
2022/06/02 05:53:09;;;;;;;9.13;8.10;;;1178.10;1024.00;;;;;;5009135;28;20033;-60
2022/06/02 05:55:34;;;;;;;14.32;7.97;;;1203.70;998.40;;;;;;5010033;28;20496;-60
2022/06/02 05:58:25;;;;;;;8.48;7.80;;;1203.60;972.80;;;;;;5009668;28;20038;-59
2022/06/02 06:01:14;;;;;;;9.70;8.90;;;1203.70;972.80;;;;;;5010604;28;20364;-58
2022/06/02 06:04:17;;;;;;;10.43;8.57;;;1203.20;972.80;;;;;;5010532;28;20038;-59
2022/06/02 06:06:54;;;;;;;9.00;8.20;;;1203.20;947.20;;;;;;5010446;28;20033;-59
2022/06/02 06:09:36;;;;;;;9.60;8.82;;;1203.60;947.20;;;;;;5010517;28;20037;-58
2022/06/02 06:12:08;;;;;;;10.02;9.23;;;1203.60;947.20;;;;;;5012636;28;20045;-59
2022/06/02 06:14:37;;;;;;;10.18;9.38;;;1203.90;921.60;;;;;;5012774;28;20044;-59
2022/06/02 06:17:22;;;;;;;10.50;9.70;;;1229.50;921.60;;;;;;5012594;28;20029;-58
2022/06/02 06:20:33;;;;;;;10.50;9.70;;;1254.60;921.60;;;;;;5012578;28;20166;-58
2022/06/02 06:23:14;;;;;;;10.60;9.90;;;1254.40;921.60;;;;;;5011735;28;20388;-59
2022/06/02 06:25:54;;;;;;;9.95;9.23;;;1254.90;921.60;;;;;;5012354;28;20494;-59
2022/06/02 06:28:23;;;;;;;10.13;9.43;;;1254.40;947.20;;;;;;5012179;28;20116;-60
2022/06/02 06:31:07;;;;;;;14.48;13.32;;;1255.00;921.60;;;;;;5012067;28;20104;-59
2022/06/02 06:33:51;;;;;;;11.55;10.10;;;1255.30;896.00;;;;;;5012489;28;20121;-58
2022/06/02 06:36:35;;;;;;;11.95;11.05;;;1280.00;896.00;;;;;;5012230;28;20041;-59
2022/06/02 06:39:06;;;;;;;12.27;11.45;;;1280.70;870.40;;;;;;5011834;28;20131;-59
2022/06/02 06:42:04;;;;;;;11.63;10.73;;;1280.00;896.00;;;;;;5011956;28;20026;-59
2022/06/02 06:45:00;;;;;;;11.68;10.77;;;1254.80;921.60;;;;;;5011947;28;20030;-58
2022/06/02 06:47:46;;;;;;;10.60;9.93;;;1280.70;844.80;;;;;;5012120;28;20089;-57
2022/06/02 06:50:28;;;;;;;13.13;11.88;;;1255.10;896.00;;;;;;5011830;28;20030;-59
2022/06/02 06:53:30;;;;;;;11.45;10.75;;;1305.90;844.80;;;;;;5011661;28;20108;-58
2022/06/02 06:56:16;;;;;;;12.07;11.23;;;1305.60;819.20;;;;;;4989965;28;20038;-58
2022/06/02 06:58:51;;;;;;;11.27;10.20;;;1280.90;793.60;;;;;;4989771;28;20065;-58
2022/06/02 07:01:38;;;;;;;11.55;10.82;;;1280.90;768.00;;;;;;4990217;28;20034;-58
2022/06/02 07:04:34;;;;;;;12.63;11.77;;;1280.50;793.60;;;;;;4990261;28;20030;-57
2022/06/02 07:07:19;;;;;;;10.82;10.18;;;1254.90;819.20;;;;;;4989661;28;20038;-58
2022/06/02 07:10:28;;;;;;;11.55;10.85;;;1255.00;819.20;;;;;;4990085;28;20513;-58
2022/06/02 07:13:01;;;;;;;12.02;11.23;;;1254.80;819.20;;;;;;4973639;28;20073;-58
2022/06/02 07:15:43;;;;;;;10.57;9.82;;;1254.40;819.20;;;;;;4989934;28;20023;-58
2022/06/02 07:18:24;;;;;;;10.15;9.55;;;1229.20;819.20;;;;;;4989530;28;20089;-58
2022/06/02 07:21:01;;;;;;;10.75;10.05;;;1204.10;819.20;;;;;;4989560;28;20058;-59
2022/06/02 07:24:03;;;;;;;10.45;9.60;;;1229.00;819.20;;;;;;4989677;28;20030;-58
2022/06/02 07:26:39;;;;;;;;;;;1203.40;819.20;;;;;;4989783;28;20111;-58
2022/06/02 07:29:42;;;;;;;11.90;11.00;;;1203.80;819.20;;;;;;4989637;28;19906;-59
2022/06/02 07:32:19;;;;;;;10.25;9.55;;;1203.80;819.20;;;;;;4994873;28;20068;-59
2022/06/02 07:35:14;;;;;;;10.48;9.88;;;1228.80;819.20;;;;;;5011147;28;20076;-58
2022/06/02 07:37:54;;;;;;;9.80;8.93;;;1229.40;819.20;;;;;;5010658;28;20050;-58
2022/06/02 07:40:29;;;;;;;10.75;9.95;;;1228.90;844.80;;;;;;5010898;28;20036;-58
2022/06/02 07:43:14;;;;;;;10.85;10.25;;;1254.40;844.80;;;;;;5011061;28;20034;-57
2022/06/02 07:45:45;;;;;;;10.80;9.95;;;1229.30;819.20;;;;;;5010616;28;20026;-57
2022/06/02 07:48:32;;;;;;;11.50;10.70;;;1229.30;819.20;;;;;;5010723;28;20037;-58
2022/06/02 07:51:19;;;;;;;11.30;10.40;;;1228.90;844.80;;;;;;5009060;28;20490;-57
2022/06/02 07:54:00;;;;;;;11.20;10.45;;;1228.90;844.80;;;;;;5009481;28;20022;-57
2022/06/02 07:56:44;;;;;;;10.60;9.93;;;1229.20;844.80;;;;;;5009318;28;20415;-57
2022/06/02 07:59:16;;;;;;;10.25;9.48;;;1229.40;844.80;;;;;;5008951;28;20034;-57
2022/06/02 08:01:53;;;;;;;9.68;9.02;;;1229.20;870.40;;;;;;5009167;28;20022;-58
2022/06/02 08:04:33;;;;;;;9.93;9.23;;;1229.00;870.40;;;;;;5008576;28;20128;-56
2022/06/02 08:07:03;;;;;;;11.65;10.85;;;1203.90;844.80;;;;;;5008787;28;20037;-57
2022/06/02 08:09:53;;;;;;;10.68;9.98;;;1228.80;870.40;;;;;;5008549;28;20407;-56
2022/06/02 08:12:24;;;;;;;10.98;10.27;;;1204.10;870.40;;;;;;5008746;28;20487;-57
2022/06/02 08:15:04;;;;;;;11.18;10.00;;;1152.70;896.00;;;;;;5011082;28;20116;-59
2022/06/02 08:17:37;;;;;;;8.13;7.35;;;1075.60;998.40;;;;;;5010690;28;20046;-58
2022/06/02 08:20:02;;;;;;;7.05;6.22;;;1049.70;1075.20;;;;;;5010830;28;20045;-57
2022/06/02 08:22:34;;;;;;;6.65;5.97;;;1024.20;1100.80;;;;;;5010205;28;20452;-57
2022/06/02 08:25:11;;;;;;;10.20;6.60;;;998.80;1100.80;;;;;;5010422;28;20050;-56
2022/06/02 08:27:55;;;;;;;8.60;5.22;;;973.30;1152.00;;;;;;5010479;28;20412;-57
2022/06/02 08:30:42;;;;;;;5.18;4.68;;;972.90;1126.40;;;;;;5010040;28;20607;-56
2022/06/02 08:33:27;;;;;;;6.05;5.10;;;922.50;1152.00;;;;;;5010292;28;20465;-57
2022/06/02 08:36:10;;;;;;;6.32;5.03;;;896.70;1152.00;;;;;;5010635;28;20058;-58
2022/06/02 08:39:09;;;;;;;5.20;4.10;;;896.00;1177.60;;;;;;5010117;28;20141;-56
2022/06/02 08:41:55;;;;;;;5.57;4.40;;;871.30;1203.20;;;;;;5008145;28;20041;-56
2022/06/02 08:47:55;;;;;;;5.28;4.53;;;871.30;1228.80;;;;;;5010892;28;20033;-56
2022/06/02 08:50:52;;;;;;;5.15;4.22;;;871.10;1280.00;;;;;;5010811;28;20030;-58
2022/06/02 08:53:39;;;;;;;5.38;4.18;;;871.00;1254.40;;;;;;5010766;28;20109;-56
2022/06/02 08:56:33;;;;;;;12.30;4.53;;;870.70;1305.60;;;;;;5010709;28;20084;-57
2022/06/02 09:06:01;;;;;;;6.68;4.10;;;870.80;1280.00;;;;;;5010997;28;20037;-56
2022/06/02 09:08:54;;;;;;;5.18;4.38;;;870.60;1280.00;;;;;;5010713;28;20178;-56
2022/06/02 09:11:40;;;;;;;5.03;4.53;;;870.80;1280.00;;;;;;4971514;28;20046;-55
2022/06/02 09:17:56;;;;;;;6.53;4.18;;;870.50;1254.40;;;;;;4964883;28;20034;-56
2022/06/02 09:20:43;;;;;;;5.45;4.45;;;845.60;1305.60;;;;;;4970264;28;20058;-55
2022/06/02 09:23:42;;;;;;;6.70;4.07;;;845.70;1280.00;;;;;;4975278;28;20046;-56
2022/06/02 09:26:42;;;;;;;4.10;3.70;;;845.60;1305.60;;;;;;4971604;28;20396;-57
2022/06/02 09:29:15;;;;;;;5.68;4.90;;;845.50;1305.60;;;;;;4975181;28;20122;-57
2022/06/02 09:32:08;;;;;;;5.75;4.88;;;845.60;1305.60;;;;;;4975370;28;20037;-56
2022/06/02 09:34:48;;;;;;;7.10;4.45;;;845.60;1305.60;;;;;;4975139;28;20101;-56
2022/06/02 09:37:57;;;;;;;6.18;4.20;;;845.60;1331.20;;;;;;4974836;28;20340;-56
2022/06/02 09:40:42;;;;;;;5.82;4.38;;;845.50;1305.60;;;;;;4975536;28;20125;-56
2022/06/02 09:43:16;;;;;;;4.85;4.25;;;845.70;1280.00;;;;;;4974961;28;20385;-56
2022/06/02 09:49:26;;;;;;;5.03;4.53;;;845.30;1382.40;;;;;;4975027;28;20038;-56
2022/06/02 09:52:03;;;;;;;6.05;4.47;;;845.40;1408.00;;;;;;4974850;28;20481;-57
2022/06/02 09:54:47;;;;;;;7.82;5.13;;;845.40;1408.00;;;;;;5004772;28;20038;-56
2022/06/02 09:57:55;;;;;;;8.10;4.78;;;845.30;1382.40;;;;;;5016159;28;20033;-56
2022/06/02 10:00:39;;;;;;;6.97;4.30;;;845.60;1382.40;;;;;;5016068;28;20037;-57
2022/06/02 10:03:35;;;;;;;6.20;4.78;;;845.40;1408.00;;;;;;5015704;28;20053;-56
2022/06/02 10:06:22;;;;;;;6.90;5.03;;;845.40;1433.60;;;;;;5015932;28;20050;-57
2022/06/02 10:09:25;;;;;;;6.20;4.95;;;845.40;1433.60;;;;;;5015533;28;20037;-57
2022/06/02 10:18:52;;;;;;;5.82;5.15;;;845.40;1408.00;;;;;;5015372;28;20112;-57
2022/06/02 10:21:43;;;;;;;5.80;4.47;;;845.40;1382.40;;;;;;5015371;28;20058;-56
2022/06/02 10:24:46;;;;;;;6.65;5.18;;;845.40;1382.40;;;;;;5015270;28;20431;-57
2022/06/02 10:27:32;;;;;;;5.70;4.75;;;845.10;1382.40;;;;;;5015273;28;20464;-56
2022/06/02 10:30:16;;;;;;;7.60;5.47;;;845.20;1408.00;;;;;;5015496;28;20030;-56
2022/06/02 10:33:02;;;;;;;7.05;4.65;;;845.00;1408.00;;;;;;5015264;28;20026;-56
2022/06/02 10:35:43;;;;;;;5.82;4.85;;;845.00;1408.00;;;;;;5015674;28;20026;-57
2022/06/02 10:38:36;;;;;;;5.88;5.13;;;844.80;1433.60;;;;;;5015020;28;20056;-57
2022/06/02 10:41:14;;;;;;;6.05;4.93;;;820.10;1382.40;;;;;;5015560;28;20446;-56
2022/06/02 10:43:40;;;;;;;7.70;6.50;;;819.80;1382.40;;;;;;5015076;28;20590;-56
2022/06/02 10:46:36;;;;;;;8.10;5.15;;;819.80;1408.00;;;;;;5015213;28;20121;-56
2022/06/02 10:49:30;;;;;;;6.18;4.68;;;819.70;1433.60;;;;;;5015397;28;20026;-55
2022/06/02 10:52:33;;;;;;;5.88;4.15;;;819.80;1408.00;;;;;;5015271;28;20407;-57
2022/06/02 10:55:20;;;;;;;6.85;5.53;;;819.80;1433.60;;;;;;5015202;28;20026;-57
2022/06/02 10:58:07;;;;;;;6.60;4.55;;;819.80;1433.60;;;;;;5014755;28;20061;-55
2022/06/02 11:04:28;;;;;;;7.10;5.05;;;819.90;1382.40;;;;;;5015085;28;20091;-56
2022/06/02 11:07:22;;;;;;;6.60;4.55;;;819.90;1382.40;;;;;;5014920;28;20033;-57
2022/06/02 11:09:57;;;;;;;6.60;5.20;;;820.00;1382.40;;;;;;5014918;28;20063;-57
2022/06/02 11:12:53;;;;;;;5.78;4.55;;;819.80;1408.00;;;;;;5014653;28;20080;-57
2022/06/02 11:15:41;;;;;;;5.63;4.60;;;819.80;1408.00;;;;;;5014889;28;20030;-56
2022/06/02 11:18:35;;;;;;;5.72;4.72;;;819.90;1408.00;;;;;;5014738;28;20025;-57
2022/06/02 11:21:18;;;;;;;5.70;4.80;;;819.90;1408.00;;;;;;5013566;28;20115;-57
2022/06/02 11:24:03;;;;;;;6.57;4.88;;;820.00;1382.40;;;;;;5013918;28;20430;-56
2022/06/02 11:26:59;;;;;;;5.90;5.28;;;819.80;1382.40;;;;;;5011402;28;20025;-57
2022/06/02 11:29:43;;;;;;;5.53;4.93;;;819.30;1408.00;;;;;;5011848;28;20104;-56
2022/06/02 11:32:28;;;;;;;7.60;5.60;;;794.40;1433.60;;;;;;5011220;28;20463;-57
2022/06/02 11:35:11;;;;;;;5.70;5.05;;;794.20;1459.20;;;;;;5011507;28;20022;-56
2022/06/02 11:38:14;;;;;;;5.90;5.38;;;794.50;1459.20;;;;;;5011330;28;20146;-56
2022/06/02 11:40:55;;;;;;;6.57;4.78;;;819.50;1433.60;;;;;;5011155;28;20433;-56
2022/06/02 11:43:26;;;;;;;5.07;4.38;;;819.60;1408.00;;;;;;5010276;28;20029;-56
2022/06/02 11:46:01;;;;;;;6.63;5.55;;;819.90;1433.60;;;;;;5010822;28;20029;-56
2022/06/02 11:48:27;;;;;;;5.82;5.15;;;819.80;1484.80;;;;;;5009788;28;20083;-58
2022/06/02 11:50:52;;;;;;;8.23;6.13;;;820.10;1433.60;;;;;;5011525;28;20018;-56
2022/06/02 11:53:18;;;;;;;7.72;5.57;;;819.70;1459.20;;;;;;5011040;28;20053;-57
2022/06/02 11:56:02;;;;;;;8.65;5.63;;;819.60;1459.20;;;;;;5011420;28;20488;-56
2022/06/02 11:58:58;;;;;;;7.35;6.07;;;819.70;1459.20;;;;;;5011098;28;20030;-57
2022/06/02 12:01:37;;;;;;;7.57;5.32;;;820.00;1459.20;;;;;;5011091;28;20033;-55
2022/06/02 12:04:40;;;;;;;7.50;6.60;;;819.70;1433.60;;;;;;5010955;28;20487;-56
2022/06/02 12:07:45;;;;;;;6.40;5.75;;;819.60;1433.60;;;;;;5011086;28;20049;-56
2022/06/02 12:10:42;;;;;;;7.22;5.40;;;819.60;1459.20;;;;;;5010461;28;20117;-56
2022/06/02 12:13:20;;;;;;;7.72;6.60;;;819.60;1510.40;;;;;;5010474;28;20030;-58
2022/06/02 12:16:04;;;;;;;12.80;6.45;;;819.50;1484.80;;;;;;5010995;28;20026;-56
2022/06/02 12:18:44;;;;;;;11.15;6.05;;;819.20;1484.80;;;;;;5010826;28;20033;-57
2022/06/02 12:21:41;;;;;;;11.30;7.70;;;819.50;1484.80;;;;;;5010724;28;20018;-57
2022/06/02 12:24:44;;;;;;;7.82;6.28;;;819.50;1459.20;;;;;;5011079;28;20037;-57
2022/06/02 12:27:43;;;;;;;7.38;5.88;;;819.50;1433.60;;;;;;5010809;28;20098;-56
2022/06/02 12:30:44;;;;;;;7.63;6.13;;;819.50;1484.80;;;;;;5010778;28;20148;-57
2022/06/02 12:33:27;;;;;;;7.88;7.05;;;819.80;1459.20;;;;;;5008370;28;20068;-57
2022/06/02 12:35:53;;;;;;;;;;;820.00;1484.80;;;;;;5007906;28;20038;-57
2022/06/02 12:38:27;;;;;;;7.25;5.70;;;820.00;1510.40;;;;;;5004830;28;20252;-56
2022/06/02 12:41:11;;;;;;;7.18;6.45;;;820.00;1433.60;;;;;;5006226;28;20069;-56
2022/06/02 12:43:57;;;;;;;9.20;6.85;;;819.70;1459.20;;;;;;5006398;28;20029;-56
2022/06/02 12:46:37;;;;;;;10.13;6.93;;;819.40;1510.40;;;;;;5006386;28;20037;-56
2022/06/02 12:49:06;;;;;;;7.82;6.63;;;819.30;1510.40;;;;;;5006418;28;20064;-56
2022/06/02 12:51:50;;;;;;;10.02;8.13;;;794.50;1536.00;;;;;;5005598;28;20033;-57
2022/06/02 12:54:43;;;;;;;12.00;6.90;;;794.10;1536.00;;;;;;5007514;28;20077;-57
2022/06/02 12:57:44;;;;;;;8.30;7.18;;;794.20;1536.00;;;;;;5010189;28;20083;-57
2022/06/02 13:00:18;;;;;;;8.23;6.78;;;793.90;1587.20;;;;;;4970931;28;20062;-57
2022/06/02 13:03:11;;;;;;;7.78;6.80;;;793.70;1587.20;;;;;;4971211;28;20052;-57
2022/06/02 13:06:14;;;;;;;9.95;7.38;;;768.90;1561.60;;;;;;4970785;28;20038;-56
2022/06/02 13:09:01;;;;;;;10.10;7.57;;;793.70;1561.60;;;;;;4971086;28;20374;-56
2022/06/02 13:11:45;;;;;;;7.05;6.35;;;768.90;1561.60;;;;;;4971028;28;20069;-54
2022/06/02 13:14:32;;;;;;;6.68;5.53;;;793.90;1561.60;;;;;;4970903;28;20023;-56
2022/06/02 13:17:37;;;;;;;9.13;6.50;;;794.20;1459.20;;;;;;4970189;28;20034;-56
2022/06/02 13:20:39;;;;;;;8.32;6.80;;;794.40;1433.60;;;;;;4970579;28;20053;-56
2022/06/02 13:23:37;;;;;;;8.60;7.50;;;794.20;1536.00;;;;;;4970711;28;20027;-56
2022/06/02 13:26:33;;;;;;;8.63;7.18;;;794.20;1561.60;;;;;;4932209;29;20060;-56
2022/06/02 13:29:26;;;;;;;9.90;6.55;;;794.00;1536.00;;;;;;4932125;29;20042;-57
2022/06/02 13:32:36;;;;;;;7.32;6.55;;;794.20;1561.60;;;;;;4931786;29;20078;-56
2022/06/02 13:35:04;;;;;;;8.93;6.45;;;794.00;1536.00;;;;;;4912889;29;20052;-57
2022/06/02 13:37:39;;;;;;;7.93;7.13;;;793.80;1561.60;;;;;;4912623;29;20068;-56
2022/06/02 13:40:23;;;;;;;8.77;6.93;;;794.00;1561.60;;;;;;4913131;29;20707;-56
2022/06/02 13:43:07;;;;;;;7.60;6.47;;;793.80;1587.20;;;;;;4912395;29;20632;-57
2022/06/02 13:45:38;;;;;;;8.02;7.18;;;794.10;1536.00;;;;;;4912665;29;20146;-56
2022/06/02 13:48:42;;;;;;;7.68;6.90;;;793.90;1536.00;;;;;;4912970;29;20103;-56
2022/06/02 13:51:38;;;;;;;10.18;7.22;;;793.90;1536.00;;;;;;4912481;29;20079;-56
2022/06/02 13:58:15;;;;;;;7.05;6.05;;;794.00;1536.00;;;;;;4911902;29;20083;-56
2022/06/02 14:01:10;;;;;;;7.30;6.32;;;794.10;1561.60;;;;;;4912482;29;20032;-56
2022/06/02 14:04:04;;;;;;;12.25;7.30;;;793.70;1561.60;;;;;;4942603;29;20088;-56
2022/06/02 14:06:39;;;;;;;12.07;8.57;;;793.90;1587.20;;;;;;4949847;28;20027;-56
2022/06/02 14:09:41;;;;;;;7.97;6.95;;;794.20;1587.20;;;;;;4950122;29;20047;-56
2022/06/02 14:12:37;;;;;;;9.82;7.57;;;794.20;1561.60;;;;;;4912341;29;20410;-57
2022/06/02 14:15:30;;;;;;;9.63;7.78;;;768.70;1561.60;;;;;;4912436;29;20128;-57
2022/06/02 14:18:04;;;;;;;9.35;7.40;;;768.90;1561.60;;;;;;4912335;29;20036;-56
2022/06/02 14:21:04;;;;;;;12.23;7.80;;;793.70;1587.20;;;;;;4912167;29;20036;-57
2022/06/02 14:24:02;;;;;;;10.57;8.50;;;793.70;1561.60;;;;;;4911795;29;20036;-56